sensor_id;sensor_type;location;lat;lon;timestamp;pressure;altitude;pressure_sealevel;temperature;humidity
3598;BME280;1813;52.016;8.714;2023-07-20T00:00:21;-16261.94;;;-139.71;82.82
3598;BME280;1813;52.016;8.714;2023-07-20T00:03:09;-16261.94;;;-139.71;82.96
3598;BME280;1813;52.016;8.714;2023-07-20T00:05:47;-16261.94;;;-139.71;83.41
3598;BME280;1813;52.016;8.714;2023-07-20T00:08:21;-16261.94;;;-139.71;83.32
3598;BME280;1813;52.016;8.714;2023-07-20T00:10:57;-16261.94;;;-139.71;83.51
3598;BME280;1813;52.016;8.714;2023-07-20T00:13:31;-16261.94;;;-139.71;83.52
3598;BME280;1813;52.016;8.714;2023-07-20T00:16:07;-16261.94;;;-139.71;82.57
3598;BME280;1813;52.016;8.714;2023-07-20T00:18:41;-16261.94;;;-139.71;81.90
3598;BME280;1813;52.016;8.714;2023-07-20T00:21:15;-16261.94;;;-139.71;81.61
3598;BME280;1813;52.016;8.714;2023-07-20T00:23:49;-16261.94;;;-139.71;82.37
3598;BME280;1813;52.016;8.714;2023-07-20T00:26:27;-16261.94;;;-139.71;82.67
3598;BME280;1813;52.016;8.714;2023-07-20T00:29:01;-16261.94;;;-139.71;82.37
3598;BME280;1813;52.016;8.714;2023-07-20T00:31:35;-16261.94;;;-139.71;82.26
3598;BME280;1813;52.016;8.714;2023-07-20T00:34:09;-16261.94;;;-139.71;82.83
3598;BME280;1813;52.016;8.714;2023-07-20T00:36:44;-16261.94;;;-139.71;83.79
3598;BME280;1813;52.016;8.714;2023-07-20T00:39:19;-16261.94;;;-139.71;83.72
3598;BME280;1813;52.016;8.714;2023-07-20T00:41:57;-16261.94;;;-139.71;83.69
3598;BME280;1813;52.016;8.714;2023-07-20T00:44:31;-16261.94;;;-139.71;83.67
3598;BME280;1813;52.016;8.714;2023-07-20T00:47:06;-16261.94;;;-139.71;84.24
3598;BME280;1813;52.016;8.714;2023-07-20T00:49:40;-16261.94;;;-139.71;84.42
3598;BME280;1813;52.016;8.714;2023-07-20T00:52:14;-16261.94;;;-139.71;84.15
3598;BME280;1813;52.016;8.714;2023-07-20T00:54:49;-16261.94;;;-139.71;84.05
3598;BME280;1813;52.016;8.714;2023-07-20T00:57:26;-16261.94;;;-139.71;83.51
3598;BME280;1813;52.016;8.714;2023-07-20T01:00:01;-16261.94;;;-139.71;83.36
3598;BME280;1813;52.016;8.714;2023-07-20T01:02:35;-16261.94;;;-139.71;83.48
3598;BME280;1813;52.016;8.714;2023-07-20T01:05:09;-16261.94;;;-139.71;83.64
3598;BME280;1813;52.016;8.714;2023-07-20T01:07:59;-16261.94;;;-139.71;84.17
3598;BME280;1813;52.016;8.714;2023-07-20T01:10:38;-16261.94;;;-139.71;84.69
3598;BME280;1813;52.016;8.714;2023-07-20T01:13:18;-16261.94;;;-139.71;84.58
3598;BME280;1813;52.016;8.714;2023-07-20T01:15:56;-16261.94;;;-139.71;84.83
3598;BME280;1813;52.016;8.714;2023-07-20T01:18:30;-16261.94;;;-139.71;85.02
3598;BME280;1813;52.016;8.714;2023-07-20T01:21:09;-16261.94;;;-139.71;85.13
3598;BME280;1813;52.016;8.714;2023-07-20T01:24:05;-16261.94;;;-139.71;85.05
3598;BME280;1813;52.016;8.714;2023-07-20T01:27:19;-16261.94;;;-139.71;84.89
3598;BME280;1813;52.016;8.714;2023-07-20T01:30:14;-16261.94;;;-139.71;84.65
3598;BME280;1813;52.016;8.714;2023-07-20T01:32:54;-16261.94;;;-139.71;84.02
3598;BME280;1813;52.016;8.714;2023-07-20T01:35:30;-16261.94;;;-139.71;83.80
3598;BME280;1813;52.016;8.714;2023-07-20T01:38:06;-16261.94;;;-139.71;82.95
3598;BME280;1813;52.016;8.714;2023-07-20T01:40:42;-16261.94;;;-139.71;82.84
3598;BME280;1813;52.016;8.714;2023-07-20T01:43:16;-16261.94;;;-139.71;83.29
3598;BME280;1813;52.016;8.714;2023-07-20T01:45:50;-16261.94;;;-139.71;83.42
3598;BME280;1813;52.016;8.714;2023-07-20T01:48:27;-16261.94;;;-139.71;83.78
3598;BME280;1813;52.016;8.714;2023-07-20T01:51:01;-16261.94;;;-139.71;83.97
3598;BME280;1813;52.016;8.714;2023-07-20T01:53:34;-16261.94;;;-139.71;84.09
3598;BME280;1813;52.016;8.714;2023-07-20T01:56:09;-16261.94;;;-139.71;84.38
3598;BME280;1813;52.016;8.714;2023-07-20T01:58:43;-16261.94;;;-139.71;84.18
3598;BME280;1813;52.016;8.714;2023-07-20T02:01:16;-16261.94;;;-139.71;84.19
3598;BME280;1813;52.016;8.714;2023-07-20T02:03:54;-16261.94;;;-139.71;84.54
3598;BME280;1813;52.016;8.714;2023-07-20T02:06:28;-16261.94;;;-139.71;84.77
3598;BME280;1813;52.016;8.714;2023-07-20T02:09:01;-16261.94;;;-139.71;84.79
3598;BME280;1813;52.016;8.714;2023-07-20T02:11:36;-16261.94;;;-139.71;85.15
3598;BME280;1813;52.016;8.714;2023-07-20T02:14:09;-16261.94;;;-139.71;85.11
3598;BME280;1813;52.016;8.714;2023-07-20T02:16:43;-16261.94;;;-139.71;85.33
3598;BME280;1813;52.016;8.714;2023-07-20T02:19:21;-16261.94;;;-139.71;85.59
3598;BME280;1813;52.016;8.714;2023-07-20T02:21:55;-16261.94;;;-139.71;85.96
3598;BME280;1813;52.016;8.714;2023-07-20T02:24:29;-16261.94;;;-139.71;86.00
3598;BME280;1813;52.016;8.714;2023-07-20T02:27:03;-16261.94;;;-139.71;86.29
3598;BME280;1813;52.016;8.714;2023-07-20T02:29:38;-16261.94;;;-139.71;86.42
3598;BME280;1813;52.016;8.714;2023-07-20T02:32:12;-16261.94;;;-139.71;86.69
3598;BME280;1813;52.016;8.714;2023-07-20T02:34:48;-16261.94;;;-139.71;87.00
3598;BME280;1813;52.016;8.714;2023-07-20T02:37:22;-16261.94;;;-139.71;87.33
3598;BME280;1813;52.016;8.714;2023-07-20T02:39:56;-16261.94;;;-139.71;87.49
3598;BME280;1813;52.016;8.714;2023-07-20T02:42:31;-16261.94;;;-139.71;87.35
3598;BME280;1813;52.016;8.714;2023-07-20T02:45:07;-16261.94;;;-139.71;87.02
3598;BME280;1813;52.016;8.714;2023-07-20T02:47:40;-16261.94;;;-139.71;86.95
3598;BME280;1813;52.016;8.714;2023-07-20T02:50:17;-16261.94;;;-139.71;87.04
3598;BME280;1813;52.016;8.714;2023-07-20T02:52:51;-16261.94;;;-139.71;87.24
3598;BME280;1813;52.016;8.714;2023-07-20T02:55:24;-16261.94;;;-139.71;86.92
3598;BME280;1813;52.016;8.714;2023-07-20T02:58:01;-16261.94;;;-139.71;87.02
3598;BME280;1813;52.016;8.714;2023-07-20T03:00:35;-16261.94;;;-139.71;87.21
3598;BME280;1813;52.016;8.714;2023-07-20T03:03:09;-16261.94;;;-139.71;86.84
3598;BME280;1813;52.016;8.714;2023-07-20T03:05:45;-16261.94;;;-139.71;86.88
3598;BME280;1813;52.016;8.714;2023-07-20T03:08:25;-16261.94;;;-139.71;87.14
3598;BME280;1813;52.016;8.714;2023-07-20T03:10:59;-16261.94;;;-139.71;86.94
3598;BME280;1813;52.016;8.714;2023-07-20T03:13:34;-16261.94;;;-139.71;86.64
3598;BME280;1813;52.016;8.714;2023-07-20T03:16:08;-16261.94;;;-139.71;86.37
3598;BME280;1813;52.016;8.714;2023-07-20T03:18:43;-16261.94;;;-139.71;86.29
3598;BME280;1813;52.016;8.714;2023-07-20T03:21:19;-16261.94;;;-139.71;86.27
3598;BME280;1813;52.016;8.714;2023-07-20T03:23:53;-16261.94;;;-139.71;86.50
3598;BME280;1813;52.016;8.714;2023-07-20T03:26:28;-16261.94;;;-139.71;86.48
3598;BME280;1813;52.016;8.714;2023-07-20T03:29:03;-16261.94;;;-139.71;86.82
3598;BME280;1813;52.016;8.714;2023-07-20T03:31:38;-16261.94;;;-139.71;87.01
3598;BME280;1813;52.016;8.714;2023-07-20T03:34:12;-16261.94;;;-139.71;87.60
3598;BME280;1813;52.016;8.714;2023-07-20T03:36:48;-16261.94;;;-139.71;88.30
3598;BME280;1813;52.016;8.714;2023-07-20T03:39:23;-16261.94;;;-139.71;88.63
3598;BME280;1813;52.016;8.714;2023-07-20T03:41:57;-16261.94;;;-139.71;88.90
3598;BME280;1813;52.016;8.714;2023-07-20T03:44:31;-16261.94;;;-139.71;88.81
3598;BME280;1813;52.016;8.714;2023-07-20T03:47:06;-16261.94;;;-139.71;88.51
3598;BME280;1813;52.016;8.714;2023-07-20T03:49:40;-16261.94;;;-139.71;88.59
3598;BME280;1813;52.016;8.714;2023-07-20T03:52:16;-16261.94;;;-139.71;88.05
3598;BME280;1813;52.016;8.714;2023-07-20T03:54:50;-16261.94;;;-139.71;86.83
3598;BME280;1813;52.016;8.714;2023-07-20T03:57:25;-16261.94;;;-139.71;84.96
3598;BME280;1813;52.016;8.714;2023-07-20T03:59:59;-16261.94;;;-139.71;83.97
3598;BME280;1813;52.016;8.714;2023-07-20T04:02:32;-16261.94;;;-139.71;82.77
3598;BME280;1813;52.016;8.714;2023-07-20T04:05:07;-16261.94;;;-139.71;81.82
3598;BME280;1813;52.016;8.714;2023-07-20T04:07:43;-16261.94;;;-139.71;81.47
3598;BME280;1813;52.016;8.714;2023-07-20T04:10:17;-16261.94;;;-139.71;81.11
3598;BME280;1813;52.016;8.714;2023-07-20T04:12:56;-16261.94;;;-139.71;80.99
3598;BME280;1813;52.016;8.714;2023-07-20T04:15:30;-16261.94;;;-139.71;81.20
3598;BME280;1813;52.016;8.714;2023-07-20T04:18:04;-16261.94;;;-139.71;81.04
3598;BME280;1813;52.016;8.714;2023-07-20T04:20:38;-16261.94;;;-139.71;81.19
3598;BME280;1813;52.016;8.714;2023-07-20T04:23:15;-16261.94;;;-139.71;81.60
3598;BME280;1813;52.016;8.714;2023-07-20T04:25:49;-16261.94;;;-139.71;81.69
3598;BME280;1813;52.016;8.714;2023-07-20T04:28:23;-16261.94;;;-139.71;81.35
3598;BME280;1813;52.016;8.714;2023-07-20T04:31:09;-16261.94;;;-139.71;81.34
3598;BME280;1813;52.016;8.714;2023-07-20T04:33:43;-16261.94;;;-139.71;81.97
3598;BME280;1813;52.016;8.714;2023-07-20T04:36:17;-16261.94;;;-139.71;81.86
3598;BME280;1813;52.016;8.714;2023-07-20T04:38:54;-16261.94;;;-139.71;81.71
3598;BME280;1813;52.016;8.714;2023-07-20T04:41:28;-16261.94;;;-139.71;82.27
3598;BME280;1813;52.016;8.714;2023-07-20T04:44:02;-16261.94;;;-139.71;82.29
3598;BME280;1813;52.016;8.714;2023-07-20T04:46:36;-16261.94;;;-139.71;82.39
3598;BME280;1813;52.016;8.714;2023-07-20T04:49:11;-16261.94;;;-139.71;82.23
3598;BME280;1813;52.016;8.714;2023-07-20T04:51:47;-16261.94;;;-139.71;82.06
3598;BME280;1813;52.016;8.714;2023-07-20T04:54:25;-16261.94;;;-139.71;81.64
3598;BME280;1813;52.016;8.714;2023-07-20T04:56:59;-16261.94;;;-139.71;81.66
3598;BME280;1813;52.016;8.714;2023-07-20T04:59:33;-16261.94;;;-139.71;81.39
3598;BME280;1813;52.016;8.714;2023-07-20T05:02:08;-16261.94;;;-139.71;81.26
3598;BME280;1813;52.016;8.714;2023-07-20T05:04:43;-16261.94;;;-139.71;81.35
3598;BME280;1813;52.016;8.714;2023-07-20T05:07:17;-16261.94;;;-139.71;81.49
3598;BME280;1813;52.016;8.714;2023-07-20T05:09:53;-16261.94;;;-139.71;81.60
3598;BME280;1813;52.016;8.714;2023-07-20T05:12:27;-16261.94;;;-139.71;81.72
3598;BME280;1813;52.016;8.714;2023-07-20T05:15:01;-16261.94;;;-139.71;81.56
3598;BME280;1813;52.016;8.714;2023-07-20T05:17:37;-16261.94;;;-139.71;82.07
3598;BME280;1813;52.016;8.714;2023-07-20T05:20:11;-16261.94;;;-139.71;82.36
3598;BME280;1813;52.016;8.714;2023-07-20T05:22:45;-16261.94;;;-139.71;82.29
3598;BME280;1813;52.016;8.714;2023-07-20T05:25:22;-16261.94;;;-139.71;82.59
3598;BME280;1813;52.016;8.714;2023-07-20T05:27:56;-16261.94;;;-139.71;82.50
3598;BME280;1813;52.016;8.714;2023-07-20T05:30:30;-16261.94;;;-139.71;82.50
3598;BME280;1813;52.016;8.714;2023-07-20T05:33:04;-16261.94;;;-139.71;82.11
3598;BME280;1813;52.016;8.714;2023-07-20T05:35:38;-16261.94;;;-139.71;81.95
3598;BME280;1813;52.016;8.714;2023-07-20T05:38:12;-16261.94;;;-139.71;81.97
3598;BME280;1813;52.016;8.714;2023-07-20T05:40:49;-16261.94;;;-139.71;81.74
3598;BME280;1813;52.016;8.714;2023-07-20T05:43:22;-16261.94;;;-139.71;82.18
3598;BME280;1813;52.016;8.714;2023-07-20T05:45:56;-16261.94;;;-139.71;82.07
3598;BME280;1813;52.016;8.714;2023-07-20T05:48:30;-16261.94;;;-139.71;82.62
3598;BME280;1813;52.016;8.714;2023-07-20T05:51:04;-16261.94;;;-139.71;82.37
3598;BME280;1813;52.016;8.714;2023-07-20T05:53:38;-16261.94;;;-139.71;82.24
3598;BME280;1813;52.016;8.714;2023-07-20T05:56:14;-16261.94;;;-139.71;81.64
3598;BME280;1813;52.016;8.714;2023-07-20T05:58:48;-16261.94;;;-139.71;81.31
3598;BME280;1813;52.016;8.714;2023-07-20T06:01:22;-16261.94;;;-139.71;81.35
3598;BME280;1813;52.016;8.714;2023-07-20T06:03:57;-16261.94;;;-139.71;80.12
3598;BME280;1813;52.016;8.714;2023-07-20T06:06:31;-16261.94;;;-139.71;79.56
3598;BME280;1813;52.016;8.714;2023-07-20T06:09:06;-16261.94;;;-139.71;79.62
3598;BME280;1813;52.016;8.714;2023-07-20T06:11:45;-16261.94;;;-139.71;79.87
3598;BME280;1813;52.016;8.714;2023-07-20T06:14:19;-16261.94;;;-139.71;80.45
3598;BME280;1813;52.016;8.714;2023-07-20T06:16:52;-16261.94;;;-139.71;80.58
3598;BME280;1813;52.016;8.714;2023-07-20T06:19:27;-16261.94;;;-139.71;79.82
3598;BME280;1813;52.016;8.714;2023-07-20T06:22:02;-16261.94;;;-139.71;79.54
3598;BME280;1813;52.016;8.714;2023-07-20T06:24:36;-16261.94;;;-139.71;79.37
3598;BME280;1813;52.016;8.714;2023-07-20T06:27:13;-16261.94;;;-139.71;79.30
3598;BME280;1813;52.016;8.714;2023-07-20T06:29:47;-16261.94;;;-139.71;78.83
3598;BME280;1813;52.016;8.714;2023-07-20T06:32:21;-16261.94;;;-139.71;77.92
3598;BME280;1813;52.016;8.714;2023-07-20T06:34:55;-16261.94;;;-139.71;77.88
3598;BME280;1813;52.016;8.714;2023-07-20T06:37:29;-16261.94;;;-139.71;77.81
3598;BME280;1813;52.016;8.714;2023-07-20T06:40:04;-16261.94;;;-139.71;76.90
3598;BME280;1813;52.016;8.714;2023-07-20T06:42:42;-16261.94;;;-139.71;75.56
3598;BME280;1813;52.016;8.714;2023-07-20T06:45:16;-16261.94;;;-139.71;74.72
3598;BME280;1813;52.016;8.714;2023-07-20T06:47:50;-16261.94;;;-139.71;73.96
3598;BME280;1813;52.016;8.714;2023-07-20T06:50:24;-16261.94;;;-139.71;72.96
3598;BME280;1813;52.016;8.714;2023-07-20T06:52:58;-16261.94;;;-139.71;74.33
3598;BME280;1813;52.016;8.714;2023-07-20T06:55:33;-16261.94;;;-139.71;73.80
3598;BME280;1813;52.016;8.714;2023-07-20T06:58:11;-16261.94;;;-139.71;72.07
3598;BME280;1813;52.016;8.714;2023-07-20T07:00:45;-16261.94;;;-139.71;71.34
3598;BME280;1813;52.016;8.714;2023-07-20T07:03:19;-16261.94;;;-139.71;71.00
3598;BME280;1813;52.016;8.714;2023-07-20T07:05:55;-16261.94;;;-139.71;70.79
3598;BME280;1813;52.016;8.714;2023-07-20T07:08:29;-16261.94;;;-139.71;70.77
3598;BME280;1813;52.016;8.714;2023-07-20T07:11:05;-16261.94;;;-139.71;70.61
3598;BME280;1813;52.016;8.714;2023-07-20T07:13:43;-16261.94;;;-139.71;70.58
3598;BME280;1813;52.016;8.714;2023-07-20T07:16:17;-16261.94;;;-139.71;70.99
3598;BME280;1813;52.016;8.714;2023-07-20T07:18:52;-16261.94;;;-139.71;70.87
3598;BME280;1813;52.016;8.714;2023-07-20T07:21:26;-16261.94;;;-139.71;70.75
3598;BME280;1813;52.016;8.714;2023-07-20T07:24:00;-16261.94;;;-139.71;67.20
3598;BME280;1813;52.016;8.714;2023-07-20T07:26:37;-16261.94;;;-139.71;64.43
3598;BME280;1813;52.016;8.714;2023-07-20T07:29:13;-16261.94;;;-139.71;61.66
3598;BME280;1813;52.016;8.714;2023-07-20T07:31:48;-16261.94;;;-139.71;62.50
3598;BME280;1813;52.016;8.714;2023-07-20T07:34:22;-16261.94;;;-139.71;62.51
3598;BME280;1813;52.016;8.714;2023-07-20T07:36:55;-16261.94;;;-139.71;61.53
3598;BME280;1813;52.016;8.714;2023-07-20T07:39:29;-16261.94;;;-139.71;60.98
3598;BME280;1813;52.016;8.714;2023-07-20T07:42:04;-16261.94;;;-139.71;59.00
3598;BME280;1813;52.016;8.714;2023-07-20T07:44:41;-16261.94;;;-139.71;58.00
3598;BME280;1813;52.016;8.714;2023-07-20T07:47:15;-16261.94;;;-139.71;56.73
3598;BME280;1813;52.016;8.714;2023-07-20T07:49:49;-16261.94;;;-139.71;55.75
3598;BME280;1813;52.016;8.714;2023-07-20T07:52:23;-16261.94;;;-139.71;53.88
3598;BME280;1813;52.016;8.714;2023-07-20T07:54:58;-16261.94;;;-139.71;53.89
3598;BME280;1813;52.016;8.714;2023-07-20T07:57:34;-16261.94;;;-139.71;54.13
3598;BME280;1813;52.016;8.714;2023-07-20T08:00:12;-16261.94;;;-139.71;52.41
3598;BME280;1813;52.016;8.714;2023-07-20T08:02:50;-16261.94;;;-139.71;50.58
3598;BME280;1813;52.016;8.714;2023-07-20T08:05:24;-16261.94;;;-139.71;48.83
3598;BME280;1813;52.016;8.714;2023-07-20T08:08:00;-16261.94;;;-139.71;47.84
3598;BME280;1813;52.016;8.714;2023-07-20T08:10:34;-16261.94;;;-139.71;47.06
3598;BME280;1813;52.016;8.714;2023-07-20T08:13:08;-16261.94;;;-139.71;46.37
3598;BME280;1813;52.016;8.714;2023-07-20T08:15:48;-16261.94;;;-139.71;44.89
3598;BME280;1813;52.016;8.714;2023-07-20T08:18:23;-16261.94;;;-139.71;44.62
3598;BME280;1813;52.016;8.714;2023-07-20T08:20:57;-16261.94;;;-139.71;44.92
3598;BME280;1813;52.016;8.714;2023-07-20T08:23:31;-16261.94;;;-139.71;44.43
3598;BME280;1813;52.016;8.714;2023-07-20T08:26:04;-16261.94;;;-139.71;46.18
3598;BME280;1813;52.016;8.714;2023-07-20T08:28:41;-16261.94;;;-139.71;45.89
3598;BME280;1813;52.016;8.714;2023-07-20T08:31:18;-16261.94;;;-139.71;46.48
3598;BME280;1813;52.016;8.714;2023-07-20T08:33:52;-16261.94;;;-139.71;46.89
3598;BME280;1813;52.016;8.714;2023-07-20T08:36:27;-16261.94;;;-139.71;45.51
3598;BME280;1813;52.016;8.714;2023-07-20T08:39:02;-16261.94;;;-139.71;45.28
3598;BME280;1813;52.016;8.714;2023-07-20T08:41:36;-16261.94;;;-139.71;46.42
3598;BME280;1813;52.016;8.714;2023-07-20T08:44:10;-16261.94;;;-139.71;47.43
3598;BME280;1813;52.016;8.714;2023-07-20T08:46:48;-16261.94;;;-139.71;47.01
3598;BME280;1813;52.016;8.714;2023-07-20T08:49:22;-16261.94;;;-139.71;47.42
3598;BME280;1813;52.016;8.714;2023-07-20T08:51:56;-16261.94;;;-139.71;47.17
3598;BME280;1813;52.016;8.714;2023-07-20T08:54:31;-16261.94;;;-139.71;43.65
3598;BME280;1813;52.016;8.714;2023-07-20T08:57:07;-16261.94;;;-139.71;43.51
3598;BME280;1813;52.016;8.714;2023-07-20T08:59:43;-16261.94;;;-139.71;42.45
3598;BME280;1813;52.016;8.714;2023-07-20T09:02:23;-16261.94;;;-139.71;41.26
3598;BME280;1813;52.016;8.714;2023-07-20T09:05:00;-16261.94;;;-139.71;40.95
3598;BME280;1813;52.016;8.714;2023-07-20T09:07:35;-16261.94;;;-139.71;41.68
3598;BME280;1813;52.016;8.714;2023-07-20T09:10:10;-16261.94;;;-139.71;42.94
3598;BME280;1813;52.016;8.714;2023-07-20T09:12:44;-16261.94;;;-139.71;41.22
3598;BME280;1813;52.016;8.714;2023-07-20T09:15:19;-16261.94;;;-139.71;41.32
3598;BME280;1813;52.016;8.714;2023-07-20T09:17:56;-16261.94;;;-139.71;39.87
3598;BME280;1813;52.016;8.714;2023-07-20T09:20:36;-16261.94;;;-139.71;40.48
3598;BME280;1813;52.016;8.714;2023-07-20T09:23:10;-16261.94;;;-139.71;38.80
3598;BME280;1813;52.016;8.714;2023-07-20T09:25:44;-16261.94;;;-139.71;38.62
3598;BME280;1813;52.016;8.714;2023-07-20T09:28:21;-16261.94;;;-139.71;39.70
3598;BME280;1813;52.016;8.714;2023-07-20T09:30:55;-16261.94;;;-139.71;39.01
3598;BME280;1813;52.016;8.714;2023-07-20T09:33:33;-16261.94;;;-139.71;39.43
3598;BME280;1813;52.016;8.714;2023-07-20T09:36:12;-16261.94;;;-139.71;38.21
3598;BME280;1813;52.016;8.714;2023-07-20T09:38:46;-16261.94;;;-139.71;37.10
3598;BME280;1813;52.016;8.714;2023-07-20T09:41:21;-16261.94;;;-139.71;37.12
3598;BME280;1813;52.016;8.714;2023-07-20T09:43:56;-16261.94;;;-139.71;36.89
3598;BME280;1813;52.016;8.714;2023-07-20T09:46:41;-16261.94;;;-139.71;37.62
3598;BME280;1813;52.016;8.714;2023-07-20T09:49:18;-16261.94;;;-139.71;38.66
3598;BME280;1813;52.016;8.714;2023-07-20T09:51:53;-16261.94;;;-139.71;38.14
3598;BME280;1813;52.016;8.714;2023-07-20T09:54:28;-16261.94;;;-139.71;36.99
3598;BME280;1813;52.016;8.714;2023-07-20T09:57:04;-16261.94;;;-139.71;36.75
3598;BME280;1813;52.016;8.714;2023-07-20T09:59:42;-16261.94;;;-139.71;36.68
3598;BME280;1813;52.016;8.714;2023-07-20T10:02:20;-16261.94;;;-139.71;37.27
3598;BME280;1813;52.016;8.714;2023-07-20T10:05:01;-16261.94;;;-139.71;35.84
3598;BME280;1813;52.016;8.714;2023-07-20T10:07:43;-16261.94;;;-139.71;36.52
3598;BME280;1813;52.016;8.714;2023-07-20T10:10:19;-16261.94;;;-139.71;35.47
3598;BME280;1813;52.016;8.714;2023-07-20T10:12:53;-16261.94;;;-139.71;35.96
3598;BME280;1813;52.016;8.714;2023-07-20T10:15:29;-16261.94;;;-139.71;35.63
3598;BME280;1813;52.016;8.714;2023-07-20T10:18:07;-16261.94;;;-139.71;35.58
3598;BME280;1813;52.016;8.714;2023-07-20T10:20:44;-16261.94;;;-139.71;36.58
3598;BME280;1813;52.016;8.714;2023-07-20T10:23:20;-16261.94;;;-139.71;36.41
3598;BME280;1813;52.016;8.714;2023-07-20T10:25:55;-16261.94;;;-139.71;34.69
3598;BME280;1813;52.016;8.714;2023-07-20T10:28:30;-16261.94;;;-139.71;33.04
3598;BME280;1813;52.016;8.714;2023-07-20T10:31:06;-16261.94;;;-139.71;33.02
3598;BME280;1813;52.016;8.714;2023-07-20T10:33:41;-16261.94;;;-139.71;33.83
3598;BME280;1813;52.016;8.714;2023-07-20T10:36:24;-16261.94;;;-139.71;35.47
3598;BME280;1813;52.016;8.714;2023-07-20T10:38:59;-16261.94;;;-139.71;35.44
3598;BME280;1813;52.016;8.714;2023-07-20T10:41:34;-16261.94;;;-139.71;35.47
3598;BME280;1813;52.016;8.714;2023-07-20T10:44:08;-16261.94;;;-139.71;35.13
3598;BME280;1813;52.016;8.714;2023-07-20T10:46:44;-16261.94;;;-139.71;35.13
3598;BME280;1813;52.016;8.714;2023-07-20T10:49:18;-16261.94;;;-139.71;34.51
3598;BME280;1813;52.016;8.714;2023-07-20T10:52:03;-16261.94;;;-139.71;32.83
3598;BME280;1813;52.016;8.714;2023-07-20T10:54:48;-16261.94;;;-139.71;34.07
3598;BME280;1813;52.016;8.714;2023-07-20T10:57:29;-16261.94;;;-139.71;34.43
3598;BME280;1813;52.016;8.714;2023-07-20T11:00:08;-16261.94;;;-139.71;33.05
3598;BME280;1813;52.016;8.714;2023-07-20T11:02:44;-16261.94;;;-139.71;32.54
3598;BME280;1813;52.016;8.714;2023-07-20T11:05:36;-16261.94;;;-139.71;32.35
3598;BME280;1813;52.016;8.714;2023-07-20T11:08:39;-16261.94;;;-139.71;32.31
3598;BME280;1813;52.016;8.714;2023-07-20T11:11:24;-16261.94;;;-139.71;34.76
3598;BME280;1813;52.016;8.714;2023-07-20T11:14:00;-16261.94;;;-139.71;33.56
3598;BME280;1813;52.016;8.714;2023-07-20T11:16:38;-16261.94;;;-139.71;33.90
3598;BME280;1813;52.016;8.714;2023-07-20T11:19:15;-16261.94;;;-139.71;34.05
3598;BME280;1813;52.016;8.714;2023-07-20T11:21:51;-16261.94;;;-139.71;33.29
3598;BME280;1813;52.016;8.714;2023-07-20T11:24:28;-16261.94;;;-139.71;32.73
3598;BME280;1813;52.016;8.714;2023-07-20T11:27:02;-16261.94;;;-139.71;32.13
3598;BME280;1813;52.016;8.714;2023-07-20T11:29:37;-16261.94;;;-139.71;33.13
3598;BME280;1813;52.016;8.714;2023-07-20T11:32:11;-16261.94;;;-139.71;33.01
3598;BME280;1813;52.016;8.714;2023-07-20T11:34:47;-16261.94;;;-139.71;32.80
3598;BME280;1813;52.016;8.714;2023-07-20T11:37:22;-16261.94;;;-139.71;32.99
3598;BME280;1813;52.016;8.714;2023-07-20T11:39:59;-16261.94;;;-139.71;33.25
3598;BME280;1813;52.016;8.714;2023-07-20T11:42:33;-16261.94;;;-139.71;33.84
3598;BME280;1813;52.016;8.714;2023-07-20T11:45:08;-16261.94;;;-139.71;31.94
3598;BME280;1813;52.016;8.714;2023-07-20T11:47:42;-16261.94;;;-139.71;32.77
3598;BME280;1813;52.016;8.714;2023-07-20T11:50:16;-16261.94;;;-139.71;32.70
3598;BME280;1813;52.016;8.714;2023-07-20T11:52:50;-16261.94;;;-139.71;33.30
3598;BME280;1813;52.016;8.714;2023-07-20T11:55:27;-16261.94;;;-139.71;33.80
3598;BME280;1813;52.016;8.714;2023-07-20T11:58:03;-16261.94;;;-139.71;33.32
3598;BME280;1813;52.016;8.714;2023-07-20T12:00:38;-16261.94;;;-139.71;33.39
3598;BME280;1813;52.016;8.714;2023-07-20T12:03:13;-16261.94;;;-139.71;33.50
3598;BME280;1813;52.016;8.714;2023-07-20T12:05:47;-16261.94;;;-139.71;33.77
3598;BME280;1813;52.016;8.714;2023-07-20T12:08:22;-16261.94;;;-139.71;34.24
3598;BME280;1813;52.016;8.714;2023-07-20T12:10:59;-16261.94;;;-139.71;34.38
3598;BME280;1813;52.016;8.714;2023-07-20T12:13:42;-16261.94;;;-139.71;34.68
3598;BME280;1813;52.016;8.714;2023-07-20T12:16:16;-16261.94;;;-139.71;35.20
3598;BME280;1813;52.016;8.714;2023-07-20T12:18:59;-16261.94;;;-139.71;34.28
3598;BME280;1813;52.016;8.714;2023-07-20T12:21:34;-16261.94;;;-139.71;34.81
3598;BME280;1813;52.016;8.714;2023-07-20T12:24:10;-16261.94;;;-139.71;35.00
3598;BME280;1813;52.016;8.714;2023-07-20T12:26:47;-16261.94;;;-139.71;36.54
3598;BME280;1813;52.016;8.714;2023-07-20T12:29:21;-16261.94;;;-139.71;36.09
3598;BME280;1813;52.016;8.714;2023-07-20T12:31:55;-16261.94;;;-139.71;34.68
3598;BME280;1813;52.016;8.714;2023-07-20T12:34:29;-16261.94;;;-139.71;35.60
3598;BME280;1813;52.016;8.714;2023-07-20T12:37:04;-16261.94;;;-139.71;35.52
3598;BME280;1813;52.016;8.714;2023-07-20T12:39:38;-16261.94;;;-139.71;34.57
3598;BME280;1813;52.016;8.714;2023-07-20T12:42:20;-16261.94;;;-139.71;32.96
3598;BME280;1813;52.016;8.714;2023-07-20T12:44:55;-16261.94;;;-139.71;32.79
3598;BME280;1813;52.016;8.714;2023-07-20T12:47:28;-16261.94;;;-139.71;31.50
3598;BME280;1813;52.016;8.714;2023-07-20T12:50:03;-16261.94;;;-139.71;32.14
3598;BME280;1813;52.016;8.714;2023-07-20T12:52:38;-16261.94;;;-139.71;32.56
3598;BME280;1813;52.016;8.714;2023-07-20T12:55:13;-16261.94;;;-139.71;32.96
3598;BME280;1813;52.016;8.714;2023-07-20T12:57:50;-16261.94;;;-139.71;33.69
3598;BME280;1813;52.016;8.714;2023-07-20T13:00:24;-16261.94;;;-139.71;33.85
3598;BME280;1813;52.016;8.714;2023-07-20T13:02:58;-16261.94;;;-139.71;32.80
3598;BME280;1813;52.016;8.714;2023-07-20T13:05:36;-16261.94;;;-139.71;31.92
3598;BME280;1813;52.016;8.714;2023-07-20T13:08:10;-16261.94;;;-139.71;32.27
3598;BME280;1813;52.016;8.714;2023-07-20T13:10:45;-16261.94;;;-139.71;32.37
3598;BME280;1813;52.016;8.714;2023-07-20T13:13:22;-16261.94;;;-139.71;31.50
3598;BME280;1813;52.016;8.714;2023-07-20T13:15:56;-16261.94;;;-139.71;32.97
3598;BME280;1813;52.016;8.714;2023-07-20T13:18:30;-16261.94;;;-139.71;32.14
3598;BME280;1813;52.016;8.714;2023-07-20T13:21:04;-16261.94;;;-139.71;32.73
3598;BME280;1813;52.016;8.714;2023-07-20T13:23:40;-16261.94;;;-139.71;32.33
3598;BME280;1813;52.016;8.714;2023-07-20T13:26:15;-16261.94;;;-139.71;31.61
3598;BME280;1813;52.016;8.714;2023-07-20T13:28:51;-16261.94;;;-139.71;32.47
3598;BME280;1813;52.016;8.714;2023-07-20T13:31:25;-16261.94;;;-139.71;33.71
3598;BME280;1813;52.016;8.714;2023-07-20T13:33:59;-16261.94;;;-139.71;32.94